createdAt,value
2022-09-20T00:01:29.216Z,14.10
2022-09-20T00:04:16.124Z,14.05
2022-09-20T00:07:02.999Z,14.11
2022-09-20T00:09:49.853Z,13.99
2022-09-20T00:12:36.679Z,13.74
2022-09-20T00:15:23.581Z,13.85
2022-09-20T00:18:11.556Z,13.83
2022-09-20T00:20:58.392Z,13.97
2022-09-20T00:23:45.548Z,13.94
2022-09-20T00:26:32.528Z,13.83
2022-09-20T00:29:19.449Z,13.80
2022-09-20T00:32:06.399Z,13.73
2022-09-20T00:35:08.593Z,13.63
2022-09-20T00:37:55.351Z,13.66
2022-09-20T00:40:44.709Z,13.73
2022-09-20T00:43:43.863Z,13.62
2022-09-20T00:46:42.494Z,13.62
2022-09-20T00:49:30.140Z,13.57
2022-09-20T00:52:17.454Z,13.55
2022-09-20T00:55:08.418Z,13.49
2022-09-20T00:57:55.768Z,13.49
2022-09-20T01:00:44.485Z,13.48
2022-09-20T01:03:33.664Z,13.54
2022-09-20T01:06:20.762Z,13.46
2022-09-20T01:09:08.104Z,13.34
2022-09-20T01:11:57.184Z,13.34
2022-09-20T01:14:46.167Z,13.33
2022-09-20T01:17:36.585Z,13.46
2022-09-20T01:20:29.243Z,13.38
2022-09-20T01:23:37.374Z,13.29
2022-09-20T01:26:42.870Z,13.40
2022-09-20T01:29:41.493Z,13.40
2022-09-20T01:32:53.888Z,13.33
2022-09-20T01:35:44.448Z,13.38
2022-09-20T01:38:59.234Z,13.52
2022-09-20T01:41:56.523Z,13.57
2022-09-20T01:45:03.449Z,13.49
2022-09-20T01:48:07.920Z,13.51
2022-09-20T01:51:02.084Z,13.39
2022-09-20T01:54:07.456Z,13.40
2022-09-20T01:57:15.986Z,13.46
2022-09-20T02:00:10.952Z,13.56
2022-09-20T02:02:57.749Z,13.47
2022-09-20T02:06:03.365Z,13.60
2022-09-20T02:09:12.004Z,13.32
2022-09-20T02:12:08.151Z,13.25
2022-09-20T02:15:28.951Z,13.24
2022-09-20T02:18:37.278Z,13.38
2022-09-20T02:21:47.122Z,13.32
2022-09-20T02:24:43.221Z,13.40
2022-09-20T02:28:01.457Z,13.32
2022-09-20T02:30:54.386Z,13.32
2022-09-20T02:33:41.216Z,13.30
2022-09-20T02:36:33.873Z,13.24
2022-09-20T02:39:31.889Z,13.14
2022-09-20T02:42:25.131Z,13.04
2022-09-20T02:45:37.376Z,13.02
2022-09-20T02:48:34.675Z,12.98
2022-09-20T02:51:43.922Z,12.99
2022-09-20T02:54:37.251Z,12.99
2022-09-20T02:57:38.972Z,13.01
2022-09-20T03:00:42.842Z,13.03
2022-09-20T03:03:56.282Z,12.77
2022-09-20T03:06:55.279Z,12.76
2022-09-20T03:09:51.319Z,12.68
2022-09-20T03:12:47.060Z,12.61
2022-09-20T03:16:12.833Z,12.66
2022-09-20T03:19:21.679Z,12.64
2022-09-20T03:22:14.789Z,12.41
2022-09-20T03:25:04.313Z,12.60
2022-09-20T03:28:15.285Z,12.61
2022-09-20T03:31:08.127Z,12.47
2022-09-20T03:34:29.101Z,12.42
2022-09-20T03:37:26.045Z,12.68
2022-09-20T03:40:34.482Z,12.52
2022-09-20T03:43:58.120Z,12.43
2022-09-20T03:46:46.978Z,12.43
2022-09-20T03:49:58.429Z,12.30
2022-09-20T03:53:34.182Z,12.52
2022-09-20T03:57:06.953Z,12.29
2022-09-20T03:59:56.893Z,12.47
2022-09-20T04:03:00.788Z,12.38
2022-09-20T04:06:09.515Z,12.49
2022-09-20T04:09:21.414Z,12.51
2022-09-20T04:12:46.980Z,12.51
2022-09-20T04:15:33.860Z,12.54
2022-09-20T04:18:45.718Z,12.56
2022-09-20T04:21:46.044Z,12.44
2022-09-20T04:24:35.666Z,12.44
2022-09-20T04:27:28.470Z,12.37
2022-09-20T04:30:27.805Z,12.45
2022-09-20T04:33:22.879Z,12.27
2022-09-20T04:36:30.972Z,12.26
2022-09-20T04:39:28.576Z,12.25
2022-09-20T04:42:42.787Z,12.33
2022-09-20T04:45:52.791Z,12.10
2022-09-20T04:48:56.609Z,12.04
2022-09-20T04:51:43.432Z,12.00
2022-09-20T04:54:44.570Z,11.95
2022-09-20T04:57:57.129Z,12.09
2022-09-20T05:01:16.812Z,12.04
2022-09-20T05:04:28.828Z,12.14
2022-09-20T05:07:40.532Z,11.90
2022-09-20T05:10:33.522Z,11.93
2022-09-20T05:13:43.489Z,11.67
2022-09-20T05:16:58.233Z,11.80
2022-09-20T05:20:26.637Z,11.62
2022-09-20T05:23:22.473Z,11.71
2022-09-20T05:26:25.362Z,11.66
2022-09-20T05:29:26.636Z,11.71
2022-09-20T05:32:56.779Z,11.75
2022-09-20T05:35:55.735Z,11.67
2022-09-20T05:39:11.562Z,11.73
2022-09-20T05:42:04.648Z,11.70
2022-09-20T05:44:58.128Z,11.49
2022-09-20T05:48:02.224Z,11.67
2022-09-20T05:51:13.714Z,11.54
2022-09-20T05:54:27.944Z,11.70
2022-09-20T05:57:32.890Z,11.64
2022-09-20T06:00:22.200Z,11.63
2022-09-20T06:03:37.296Z,11.72
2022-09-20T06:06:47.478Z,11.70
2022-09-20T06:09:43.499Z,11.70
2022-09-20T06:12:35.408Z,11.78
2022-09-20T06:15:59.148Z,11.92
2022-09-20T06:19:20.361Z,11.98
2022-09-20T06:22:14.336Z,11.93
2022-09-20T06:25:09.940Z,11.82
2022-09-20T06:28:03.313Z,11.96
2022-09-20T06:30:51.612Z,12.08
2022-09-20T06:33:46.154Z,12.08
2022-09-20T06:37:03.937Z,12.11
2022-09-20T06:40:27.968Z,12.28
2022-09-20T06:43:14.827Z,12.38
2022-09-20T06:46:01.737Z,12.24
2022-09-20T06:48:48.625Z,12.23
2022-09-20T06:51:37.754Z,12.30
2022-09-20T06:54:27.127Z,12.45
2022-09-20T06:57:21.179Z,12.59
2022-09-20T07:00:11.508Z,12.62
2022-09-20T07:02:58.337Z,12.64
2022-09-20T07:05:45.484Z,12.71
2022-09-20T07:08:32.339Z,12.76
2022-09-20T07:11:19.201Z,12.71
2022-09-20T07:14:07.506Z,12.71
2022-09-20T07:16:54.524Z,12.85
2022-09-20T07:19:41.506Z,12.86
2022-09-20T07:22:28.535Z,12.91
2022-09-20T07:25:15.547Z,13.01
2022-09-20T07:28:02.757Z,13.06
2022-09-20T07:30:50.084Z,13.00
2022-09-20T07:33:36.933Z,13.12
2022-09-20T07:36:23.789Z,13.21
2022-09-20T07:39:10.633Z,13.18
2022-09-20T07:41:57.633Z,13.19
2022-09-20T07:44:44.563Z,13.29
2022-09-20T07:47:35.433Z,13.36
2022-09-20T07:50:22.641Z,13.49
2022-09-20T07:53:09.530Z,13.38
2022-09-20T07:56:01.515Z,13.36
2022-09-20T07:58:52.078Z,13.43
2022-09-20T08:01:40.148Z,13.52
2022-09-20T08:04:26.985Z,13.75
2022-09-20T08:07:13.857Z,13.79
2022-09-20T08:10:00.724Z,14.07
2022-09-20T08:16:04.948Z,13.66
2022-09-20T08:18:57.671Z,13.80
2022-09-20T08:21:45.206Z,13.95
2022-09-20T08:24:33.128Z,14.05
2022-09-20T08:27:20.324Z,14.02
2022-09-20T08:30:08.453Z,13.99
2022-09-20T08:32:55.839Z,14.23
2022-09-20T08:35:42.855Z,14.04
2022-09-20T08:41:50.794Z,14.34
2022-09-20T08:45:00.056Z,14.47
2022-09-20T08:47:55.237Z,14.59
2022-09-20T08:50:44.876Z,14.52
2022-09-20T08:53:33.262Z,14.54
2022-09-20T08:56:21.723Z,14.56
2022-09-20T08:59:15.677Z,14.73
2022-09-20T09:02:02.697Z,14.75
2022-09-20T09:04:51.559Z,14.73
2022-09-20T09:07:39.629Z,14.81
2022-09-20T09:10:31.389Z,15.02
2022-09-20T09:14:01.568Z,15.06
2022-09-20T09:16:48.440Z,15.13
2022-09-20T09:19:59.711Z,15.21
2022-09-20T09:22:47.712Z,15.43
2022-09-20T09:25:39.591Z,15.48
2022-09-20T09:28:29.430Z,15.49
2022-09-20T09:31:28.123Z,15.59
2022-09-20T09:34:36.075Z,15.76
2022-09-20T09:37:31.254Z,15.74
2022-09-20T09:40:19.133Z,15.86
2022-09-20T09:43:07.912Z,15.96
2022-09-20T09:45:56.253Z,15.98
2022-09-20T09:48:46.014Z,16.03
2022-09-20T09:51:34.550Z,16.14
2022-09-20T09:54:24.276Z,16.24
2022-09-20T09:57:17.425Z,16.36
2022-09-20T10:00:19.637Z,16.46
2022-09-20T10:03:17.034Z,16.63
2022-09-20T10:06:23.289Z,16.87
2022-09-20T10:09:26.922Z,16.94
2022-09-20T10:12:30.182Z,17.04
2022-09-20T10:15:25.300Z,17.01
2022-09-20T10:18:33.608Z,17.03
2022-09-20T10:21:41.468Z,17.25
2022-09-20T10:24:43.271Z,17.40
2022-09-20T10:27:36.038Z,17.31
2022-09-20T10:30:48.967Z,17.47
2022-09-20T10:33:44.168Z,17.62
2022-09-20T10:36:49.673Z,17.40
2022-09-20T10:39:39.360Z,17.60
2022-09-20T10:42:54.003Z,17.50
2022-09-20T10:46:20.548Z,17.75
2022-09-20T10:49:31.143Z,17.67
2022-09-20T10:52:51.652Z,17.77
2022-09-20T10:55:47.280Z,17.75
2022-09-20T10:58:46.619Z,17.94
2022-09-20T11:01:54.095Z,18.00
2022-09-20T11:05:15.340Z,17.86
2022-09-20T11:08:19.041Z,18.07
2022-09-20T11:11:12.496Z,18.29
2022-09-20T11:14:19.317Z,18.07
2022-09-20T11:17:32.253Z,18.18
2022-09-20T11:20:27.647Z,18.17
2022-09-20T11:23:22.495Z,18.10
2022-09-20T11:26:19.541Z,18.25
2022-09-20T11:29:18.745Z,18.03
2022-09-20T11:32:17.752Z,18.31
2022-09-20T11:35:20.959Z,18.23
2022-09-20T11:38:31.834Z,18.54
2022-09-20T11:41:31.064Z,18.60
2022-09-20T11:44:19.900Z,18.34
2022-09-20T11:47:49.856Z,18.46
2022-09-20T11:51:08.884Z,18.60
2022-09-20T11:54:17.312Z,18.56
2022-09-20T11:57:06.048Z,18.27
2022-09-20T11:59:56.325Z,18.51
2022-09-20T12:02:45.992Z,18.62
2022-09-20T12:05:37.249Z,18.74
2022-09-20T12:08:33.653Z,18.83
2022-09-20T12:11:32.812Z,18.58
2022-09-20T12:14:28.072Z,18.79
2022-09-20T12:17:46.233Z,18.95
2022-09-20T12:20:33.088Z,18.68
2022-09-20T12:23:42.477Z,18.85
2022-09-20T12:26:41.130Z,18.95
2022-09-20T12:29:29.735Z,18.95
2022-09-20T12:32:40.843Z,19.02
2022-09-20T12:35:37.137Z,18.95
2022-09-20T12:38:30.460Z,19.08
2022-09-20T12:41:27.858Z,18.69
2022-09-20T12:44:33.368Z,18.80
2022-09-20T12:47:23.411Z,18.91
2022-09-20T12:50:33.145Z,19.07
2022-09-20T12:53:21.667Z,19.13
2022-09-20T12:56:17.922Z,19.24
2022-09-20T12:59:18.337Z,18.99
2022-09-20T13:02:44.858Z,19.11
2022-09-20T13:05:36.580Z,19.28
2022-09-20T13:08:25.254Z,19.59
2022-09-20T13:11:30.422Z,19.09
2022-09-20T13:14:31.493Z,19.14
2022-09-20T13:17:27.265Z,19.34
2022-09-20T13:20:22.484Z,19.31
2022-09-20T13:23:20.332Z,19.27
2022-09-20T13:26:09.592Z,19.42
2022-09-20T13:28:57.093Z,19.41
2022-09-20T13:31:43.955Z,19.54
2022-09-20T13:34:30.854Z,19.50
2022-09-20T13:37:23.687Z,19.49
2022-09-20T13:40:19.554Z,19.25
2022-09-20T13:43:24.074Z,19.51
2022-09-20T13:46:12.802Z,19.52
2022-09-20T13:49:24.545Z,19.54
2022-09-20T13:52:26.612Z,19.48
2022-09-20T13:55:26.485Z,19.53
2022-09-20T13:58:27.042Z,19.64
2022-09-20T14:01:34.936Z,19.65
2022-09-20T14:04:23.653Z,19.58
2022-09-20T14:07:13.857Z,19.49
2022-09-20T14:10:00.994Z,19.57
2022-09-20T14:12:49.253Z,19.49
2022-09-20T14:15:38.796Z,19.76
2022-09-20T14:18:25.868Z,19.71
2022-09-20T14:21:17.401Z,19.63
2022-09-20T14:24:24.825Z,19.46
2022-09-20T14:27:22.398Z,19.70
2022-09-20T14:30:33.197Z,19.71
2022-09-20T14:33:21.023Z,19.67
2022-09-20T14:36:14.637Z,19.57
2022-09-20T14:39:04.253Z,19.41
2022-09-20T14:41:51.268Z,19.57
2022-09-20T14:44:38.305Z,19.59
2022-09-20T14:47:36.558Z,19.61
2022-09-20T14:50:43.982Z,19.56
2022-09-20T14:53:31.899Z,19.42
2022-09-20T14:56:43.782Z,19.57
2022-09-20T14:59:41.833Z,19.80
2022-09-20T15:02:28.782Z,19.79
2022-09-20T15:05:27.087Z,19.65
2022-09-20T15:08:15.663Z,19.69
2022-09-20T15:11:03.325Z,19.58
2022-09-20T15:13:50.236Z,19.69
2022-09-20T15:16:37.223Z,19.74
2022-09-20T15:19:24.181Z,19.82
2022-09-20T15:22:11.643Z,19.66
2022-09-20T15:24:58.525Z,19.51
2022-09-20T15:27:46.618Z,19.56
2022-09-20T15:30:33.664Z,19.49
2022-09-20T15:33:21.954Z,19.58
2022-09-20T15:36:08.996Z,19.64
2022-09-20T15:38:56.359Z,19.79
2022-09-20T15:41:45.151Z,19.69
2022-09-20T15:44:32.713Z,19.50
2022-09-20T15:47:22.096Z,19.52
2022-09-20T15:50:09.611Z,19.43
2022-09-20T15:52:59.992Z,19.50
2022-09-20T15:55:47.045Z,19.45
2022-09-20T15:58:36.256Z,19.52
2022-09-20T16:01:24.114Z,19.59
2022-09-20T16:04:16.082Z,19.61
2022-09-20T16:07:06.178Z,19.61
2022-09-20T16:09:54.408Z,19.48
2022-09-20T16:12:41.283Z,19.27
2022-09-20T16:15:28.169Z,19.37
2022-09-20T16:18:33.482Z,19.43
2022-09-20T16:21:21.264Z,19.44
2022-09-20T16:24:09.145Z,19.53
2022-09-20T16:26:56.408Z,19.45
2022-09-20T16:29:43.253Z,19.53
2022-09-20T16:32:30.183Z,19.75
2022-09-20T16:35:17.049Z,19.51
2022-09-20T16:38:03.942Z,19.61
2022-09-20T16:40:54.775Z,19.58
2022-09-20T16:43:41.609Z,19.52
2022-09-20T16:46:30.329Z,19.58
2022-09-20T16:49:17.673Z,19.41
2022-09-20T16:52:05.650Z,19.51
2022-09-20T16:54:52.526Z,19.52
2022-09-20T16:57:39.393Z,19.33
2022-09-20T17:00:26.311Z,19.36
2022-09-20T17:03:13.230Z,19.32
2022-09-20T17:06:09.781Z,19.23
2022-09-20T17:08:59.136Z,19.29
2022-09-20T17:11:49.717Z,19.17
2022-09-20T17:14:37.139Z,19.03
2022-09-20T17:17:24.053Z,19.18
2022-09-20T17:20:11.067Z,19.13
2022-09-20T17:22:58.200Z,19.03
2022-09-20T17:25:45.725Z,18.65
2022-09-20T17:28:40.326Z,18.65
2022-09-20T17:31:34.160Z,18.39
2022-09-20T17:34:22.002Z,18.37
2022-09-20T17:37:09.707Z,18.35
2022-09-20T17:40:02.918Z,18.30
2022-09-20T17:42:49.827Z,18.27
2022-09-20T17:45:36.702Z,18.11
2022-09-20T17:48:24.245Z,18.06
2022-09-20T17:51:12.712Z,17.96
2022-09-20T17:53:59.881Z,17.90
2022-09-20T17:56:48.825Z,17.87
2022-09-20T17:59:36.664Z,17.85
2022-09-20T18:02:23.842Z,17.78
2022-09-20T18:05:10.658Z,17.72
2022-09-20T18:07:57.500Z,17.67
2022-09-20T18:10:55.869Z,17.72
2022-09-20T18:13:42.930Z,17.60
2022-09-20T18:16:31.137Z,17.65
2022-09-20T18:19:18.024Z,17.56
2022-09-20T18:22:04.909Z,17.52
2022-09-20T18:24:51.774Z,17.50
2022-09-20T18:27:38.943Z,17.51
2022-09-20T18:30:26.119Z,17.44
2022-09-20T18:33:15.665Z,17.39
2022-09-20T18:36:05.060Z,17.45
2022-09-20T18:38:54.922Z,17.39
2022-09-20T18:41:42.830Z,17.32
2022-09-20T18:44:34.050Z,17.28
2022-09-20T18:47:21.130Z,17.31
2022-09-20T18:50:10.469Z,17.35
2022-09-20T18:52:59.120Z,17.33
2022-09-20T18:55:46.528Z,17.31
2022-09-20T18:58:34.260Z,17.28
2022-09-20T19:01:30.023Z,17.18
2022-09-20T19:04:23.017Z,17.18
2022-09-20T19:07:28.050Z,17.17
2022-09-20T19:10:47.212Z,17.14
2022-09-20T19:13:54.715Z,17.19
2022-09-20T19:16:43.678Z,17.06
2022-09-20T19:19:50.126Z,17.06
2022-09-20T19:23:12.538Z,17.17
2022-09-20T19:26:18.374Z,17.05
2022-09-20T19:29:22.763Z,17.07
2022-09-20T19:32:18.799Z,17.05
2022-09-20T19:35:06.429Z,16.99
2022-09-20T19:38:25.566Z,17.05
2022-09-20T19:41:39.569Z,16.99
2022-09-20T19:44:39.407Z,16.94
2022-09-20T19:47:54.939Z,16.95
2022-09-20T19:50:46.921Z,16.90
2022-09-20T19:53:34.378Z,16.87
2022-09-20T19:56:24.785Z,16.86
2022-09-20T19:59:12.809Z,16.80
2022-09-20T20:02:00.061Z,16.80
2022-09-20T20:04:47.277Z,16.79
2022-09-20T20:07:50.029Z,16.82
2022-09-20T20:11:03.344Z,16.81
2022-09-20T20:14:26.345Z,16.72
2022-09-20T20:18:01.118Z,16.77
2022-09-20T20:20:49.845Z,16.72
2022-09-20T20:23:56.237Z,16.52
2022-09-20T20:26:43.120Z,16.65
2022-09-20T20:29:30.284Z,16.48
2022-09-20T20:32:17.186Z,16.60
2022-09-20T20:35:04.483Z,16.54
2022-09-20T20:37:51.828Z,16.53
2022-09-20T20:40:39.205Z,16.55
2022-09-20T20:43:27.934Z,16.60
2022-09-20T20:46:18.571Z,16.52
2022-09-20T20:49:05.643Z,16.45
2022-09-20T20:51:52.465Z,16.44
2022-09-20T20:54:39.292Z,16.44
2022-09-20T20:57:26.649Z,16.28
2022-09-20T21:00:15.114Z,16.15
2022-09-20T21:03:02.823Z,16.16
2022-09-20T21:05:55.575Z,16.25
2022-09-20T21:08:49.016Z,16.24
2022-09-20T21:11:38.534Z,16.20
2022-09-20T21:14:25.427Z,16.10
2022-09-20T21:17:12.261Z,16.02
2022-09-20T21:19:59.112Z,16.03
2022-09-20T21:22:46.052Z,15.94
2022-09-20T21:25:32.878Z,16.04
2022-09-20T21:28:20.358Z,16.09
2022-09-20T21:31:08.709Z,16.04
2022-09-20T21:33:56.189Z,16.00
2022-09-20T21:36:44.770Z,15.96
2022-09-20T21:39:31.757Z,15.91
2022-09-20T21:42:18.565Z,15.79
2022-09-20T21:45:09.229Z,15.77
2022-09-20T21:47:56.036Z,15.70
2022-09-20T21:50:42.880Z,15.72
2022-09-20T21:53:30.556Z,15.62
2022-09-20T21:56:17.624Z,15.63
2022-09-20T21:59:06.111Z,15.65
2022-09-20T22:01:57.888Z,15.57
2022-09-20T22:04:44.690Z,15.57
2022-09-20T22:07:31.542Z,15.49
2022-09-20T22:10:18.366Z,15.51
2022-09-20T22:13:05.201Z,15.48
2022-09-20T22:15:52.068Z,15.31
2022-09-20T22:18:40.961Z,15.29
2022-09-20T22:21:30.279Z,15.32
2022-09-20T22:24:17.531Z,15.36
2022-09-20T22:27:04.400Z,15.37
2022-09-20T22:29:51.491Z,15.33
2022-09-20T22:32:38.299Z,15.21
2022-09-20T22:35:25.120Z,15.21
2022-09-20T22:38:12.010Z,15.23
2022-09-20T22:40:59.405Z,15.19
2022-09-20T22:43:47.104Z,15.03
2022-09-20T22:46:34.898Z,15.14
2022-09-20T22:49:21.744Z,15.18
2022-09-20T22:52:08.640Z,15.16
2022-09-20T22:54:57.644Z,15.09
2022-09-20T22:57:44.501Z,15.12
2022-09-20T23:00:31.990Z,14.99
2022-09-20T23:03:18.871Z,15.03
2022-09-20T23:06:22.153Z,14.94
2022-09-20T23:09:12.034Z,14.97
2022-09-20T23:11:58.937Z,14.84
2022-09-20T23:14:45.805Z,14.84
2022-09-20T23:17:33.287Z,14.84
2022-09-20T23:20:20.137Z,14.75
2022-09-20T23:23:07.202Z,14.77
2022-09-20T23:25:55.248Z,14.79
2022-09-20T23:28:43.916Z,14.64
2022-09-20T23:31:32.631Z,14.64
2022-09-20T23:34:19.594Z,14.45
2022-09-20T23:37:06.923Z,14.59
2022-09-20T23:39:53.772Z,14.56
2022-09-20T23:42:41.314Z,14.42
2022-09-20T23:45:28.285Z,14.34
2022-09-20T23:48:15.177Z,14.27
2022-09-20T23:51:05.915Z,14.31
2022-09-20T23:53:53.348Z,14.21
2022-09-20T23:56:41.716Z,14.25
2022-09-20T23:59:28.625Z,14.19
